Skip to Main Content
SEARCH:
Location Air RH Dwp Precip Type Wind Speed Wind Gust Direction Pavement Temperature Date/Time
Hatem Bridge US 40 E/B 75 86 71 None - 10 mph N 71 - 71 8/27/2016 2:13:00 AM
I-270 AT I-370 75 81 69 None Calm Calm N 82 - 83 8/27/2016 2:10:00 AM
I-270 AT MD-109 71 100 71 None Calm Calm NE 78 - 79 8/27/2016 2:10:00 AM
I-495 AT American Legion Bridge 73 100 73 None Calm Calm N 80 - 81 8/27/2016 2:10:00 AM
I-68 AT MD-219 69 89 66 None Calm Calm S 72 - 73 8/27/2016 2:10:00 AM
I-68 AT Savage Mt 65 100 65 None Calm 5 mph NW 69 - 70 8/27/2016 2:10:00 AM
I-68 AT Sideling Hill 76 66 64 None Calm 9 mph E 79 - 80 8/27/2016 2:10:00 AM
I-68 AT WV Line 63 100 63 None Calm Calm N 73 - 73 8/27/2016 2:10:00 AM
I-695 AT I-83 71 93 69 None Calm Calm NW 79 - 79 8/27/2016 2:10:00 AM
I-70 AT Fred-Wash Co. 75 64 62 None Calm Calm N 78 - 78 8/27/2016 2:10:00 AM
I-70 AT I-695 71 96 71 None Calm Calm SW 145 - 82 8/27/2016 2:10:00 AM
I-70 AT I-81 71 89 68 None Calm Calm SE 81 - 81 8/27/2016 2:10:00 AM
I-70 AT MD-27 74 79 67 None Calm Calm N 80 - 80 8/27/2016 2:10:00 AM
I-70 AT MD-32 70 97 70 None Calm Calm E 78 - 80 8/27/2016 2:10:00 AM
I-83 AT MD-137 69 100 69 None Calm Calm NW 76 - 76 8/27/2016 2:10:00 AM
I-895 AT I-95 - - - No Data Available - - No Data Available -
I-95 AT I-695 NE 74 83 68 None Calm Calm N 80 - 82 8/27/2016 2:13:00 AM
I-95 AT Patuxent River 76 96 75 None Calm Calm N 80 - 81 8/27/2016 2:10:00 AM
I-95 AT Tydings Bridge 73 82 67 None Calm Calm N 77 - 77 8/27/2016 2:10:00 AM
I-95/495 AT I-295 89 59 73 None Calm Calm SW 86 - 93 8/27/2016 2:10:00 AM
I-97 AT MD-100 75 88 71 None Calm Calm NW 80 - 80 8/27/2016 2:10:00 AM
I-97 AT MD-32 73 95 71 None 11 mph 11 mph N 80 - 82 8/27/2016 2:10:00 AM
MD 231 at Patuxent River 77 97 76 None Calm 5 mph N 84 - 85 8/27/2016 2:10:00 AM
MD-135 AT Salt Dome 68 99 68 None Calm Calm SW 75 - 75 8/27/2016 2:10:00 AM
MD-140 AT MD-97 68 100 68 None Calm Calm NE 78 - 78 8/27/2016 2:10:00 AM
MD-200 EB AT Bonifant Rd 72 99 72 None Calm Calm NW 76 - 79 8/27/2016 2:13:00 AM
MD-200 WB AT Muncaster Mill Rd 70 96 69 None Calm Calm N 78 - 79 8/27/2016 2:13:00 AM
MD-213 AT Sassafras River 74 100 74 None Calm Calm N 81 - 81 8/27/2016 2:10:00 AM
MD-24 AT Rock St Park 68 100 68 None Calm Calm N 72 - 72 8/27/2016 2:10:00 AM
MD-30 AT PA Line 75 71 65 None Calm Calm SE 49 - 49 8/27/2016 2:10:00 AM
MD-301 AT MD-305 72 95 70 None Calm Calm S 80 - 83 8/27/2016 2:10:00 AM
MD-33 AT Knapps Narrows Drawbridge 79 85 75 None Calm Calm N 89 - 89 8/27/2016 2:10:00 AM
MD-344 at MD-224 76 96 75 None Calm Calm E 86 - 86 8/27/2016 2:10:00 AM
MD-4 AT Patuxent River 78 97 78 None - - No Data Available 85 - 87 8/27/2016 2:10:00 AM
MD-404 AT Choptank River 71 98 71 None Calm Calm NW 80 - 80 8/27/2016 2:10:00 AM
MD-43 AT MD-150 76 84 71 None Calm Calm NW 81 - 82 8/27/2016 2:10:00 AM
MD-51 AT Oldtown Salt Dome 68 97 67 None Calm Calm N 82 - 82 8/27/2016 2:10:00 AM
US-1 AT Baltimore / Harford Co. Line 69 98 69 None Calm Calm N 74 - 75 8/27/2016 2:10:00 AM
US-1 AT Conowingo Dam 71 94 69 None Calm Calm N 79 - 79 8/27/2016 2:10:00 AM
US-13 AT US-113 74 98 73 None Calm Calm NE 84 - 86 8/27/2016 2:10:00 AM
US-13 AT US-50 74 92 71 None Calm Calm N 81 - 81 8/27/2016 2:10:00 AM
US-15 AT MD-140 68 88 65 None Calm Calm N 77 - 77 8/27/2016 2:10:00 AM
US-301 AT MD-5 77 94 75 None Calm Calm N 84 - 86 8/27/2016 2:10:00 AM
US-301 AT Potomac 78 89 75 None Calm 4 mph NE 83 - 85 8/27/2016 2:10:00 AM
US-340 AT MD-180 70 89 67 None Calm 5 mph NW 77 - 80 8/27/2016 2:10:00 AM
US-50 AT Choptank 77 88 73 None Calm Calm NE 83 - 83 8/27/2016 2:10:00 AM
US-50 AT I-95 - - - No Data Available - - No Data Available -
US-50 AT MD-2 75 94 74 None Calm Calm NW 83 - 83 8/27/2016 2:10:00 AM
US-50 AT MD-331 78 82 72 None Calm Calm N 81 - 82 8/27/2016 2:10:00 AM
US-50 AT OC Drawbridge 78 82 72 None 7 mph 9 mph NW 82 - 82 8/27/2016 2:10:00 AM
US-50 AT Table Rock Rd 67 100 67 None Calm Calm E 76 - 76 8/27/2016 2:10:00 AM
US-50 Kent Narrow Bridge 81 83 76 None Calm Calm N 83 - 83 8/27/2016 2:10:00 AM
WPL Pier 31 - - - None - - No Data Available 79 - 79 8/27/2016 2:13:00 AM
Location Air RH Dwp Precip Type Wind Speed Wind Gust Direction Pavement Temperature Date/Time